Terminal Aerodrome Forecast
Issued by NWS

Home | Current Version | Previous Version | Text Only | Print | Product List | Glossary On
Versions: 1 2 3 4 5 6 7 8 9 10 11 12 13 14 15 16 17 18 19 20
000
FTUS46 KMTR 211800 AAA
TAFSNS
TAF AMD
KSNS 211812Z 2118/2218 VRB03KT 4SM BR SCT004
     FM211900 28008KT P6SM FEW035 SCT150
     FM220200 VRB03KT P6SM SCT100
     FM220900 12007KT P6SM BKN040
     FM221700 13008KT 6SM -RA BR OVC035=

USA.gov is the U.S. government's official web portal to all federal, state and local government web resources and services.